createdAt,value
2022-12-18T00:03:38.775Z,7.60
2022-12-18T00:08:43.321Z,7.47
2022-12-18T00:13:48.001Z,7.77
2022-12-18T00:18:54.942Z,8.33
2022-12-18T00:23:58.808Z,8.77
2022-12-18T00:29:05.699Z,7.97
2022-12-18T00:34:12.199Z,8.00
2022-12-18T00:39:17.168Z,8.07
2022-12-18T00:44:21.934Z,7.87
2022-12-18T00:49:26.893Z,9.17
2022-12-18T00:54:30.442Z,8.30
2022-12-18T00:59:33.902Z,8.17
2022-12-18T01:04:39.124Z,7.90
2022-12-18T01:09:42.794Z,7.93
2022-12-18T01:14:46.592Z,7.87
2022-12-18T01:19:53.207Z,7.60
2022-12-18T01:24:56.650Z,8.40
2022-12-18T01:30:00.211Z,8.13
2022-12-18T01:35:06.528Z,7.70
2022-12-18T01:40:11.029Z,8.23
2022-12-18T01:45:28.771Z,7.53
2022-12-18T01:50:38.056Z,7.57
2022-12-18T01:55:45.594Z,7.00
2022-12-18T02:00:50.402Z,8.03
2022-12-18T02:06:07.220Z,7.90
2022-12-18T02:11:17.786Z,7.97
2022-12-18T02:16:27.090Z,7.67
2022-12-18T02:21:39.805Z,7.63
2022-12-18T02:26:48.754Z,8.47
2022-12-18T02:31:56.715Z,7.43
2022-12-18T02:37:04.283Z,7.80
2022-12-18T02:42:10.068Z,7.40
2022-12-18T02:47:15.778Z,7.50
2022-12-18T02:52:27.418Z,7.30
2022-12-18T02:57:39.543Z,7.30
2022-12-18T03:02:50.671Z,7.00
2022-12-18T03:08:00.001Z,7.63
2022-12-18T03:13:12.005Z,7.60
2022-12-18T03:18:19.801Z,7.97
2022-12-18T03:23:26.427Z,8.10
2022-12-18T03:28:34.346Z,8.50
2022-12-18T03:33:44.649Z,8.40
2022-12-18T03:38:48.376Z,8.83
2022-12-18T03:44:02.739Z,8.07
2022-12-18T03:49:13.699Z,9.23
2022-12-18T03:54:19.688Z,9.80
2022-12-18T03:59:34.358Z,9.67
2022-12-18T04:04:39.800Z,10.07
2022-12-18T04:09:45.877Z,10.73
2022-12-18T04:14:52.137Z,10.77
2022-12-18T04:19:55.838Z,12.73
2022-12-18T04:25:01.353Z,12.93
2022-12-18T04:30:14.522Z,12.80
2022-12-18T04:35:18.642Z,13.70
2022-12-18T04:40:22.621Z,14.37
2022-12-18T04:45:28.621Z,13.57
2022-12-18T04:50:32.795Z,15.43
2022-12-18T04:55:36.295Z,14.70
2022-12-18T05:00:41.181Z,15.17
2022-12-18T05:05:44.936Z,15.93
2022-12-18T05:10:48.739Z,18.30
2022-12-18T05:15:55.399Z,17.37
2022-12-18T05:20:59.278Z,18.13
2022-12-18T05:26:05.895Z,18.93
2022-12-18T05:31:11.119Z,20.13
2022-12-18T05:36:14.794Z,19.00
2022-12-18T05:41:18.298Z,20.87
2022-12-18T05:46:23.371Z,22.87
2022-12-18T05:51:27.038Z,21.53
2022-12-18T05:56:30.402Z,21.17
2022-12-18T06:01:35.462Z,21.67
2022-12-18T06:06:39.265Z,23.03
2022-12-18T06:11:42.920Z,22.93
2022-12-18T06:16:47.722Z,22.83
2022-12-18T06:21:51.856Z,23.47
2022-12-18T06:26:55.325Z,23.63
2022-12-18T06:32:00.903Z,27.60
2022-12-18T06:37:05.432Z,33.33
2022-12-18T06:42:09.046Z,27.83
2022-12-18T06:47:14.258Z,28.77
2022-12-18T06:52:17.788Z,31.60
2022-12-18T06:57:21.306Z,31.90
2022-12-18T07:02:26.244Z,29.03
2022-12-18T07:07:29.803Z,29.03
2022-12-18T07:12:33.218Z,28.70
2022-12-18T07:17:38.172Z,25.50
2022-12-18T07:22:41.650Z,22.47
2022-12-18T07:27:45.129Z,25.40
2022-12-18T07:32:50.296Z,26.07
2022-12-18T07:37:53.942Z,24.53
2022-12-18T07:42:57.364Z,24.57
2022-12-18T07:48:02.390Z,24.07
2022-12-18T07:53:06.191Z,28.23
2022-12-18T07:58:10.301Z,28.20
2022-12-18T08:03:16.469Z,31.07
2022-12-18T08:08:19.959Z,29.23
2022-12-18T08:13:24.301Z,26.97
2022-12-18T08:18:29.671Z,26.73
2022-12-18T08:23:35.094Z,27.47
2022-12-18T08:28:42.720Z,29.40
2022-12-18T08:33:48.108Z,25.90
2022-12-18T08:38:51.788Z,26.03
2022-12-18T08:44:12.510Z,27.70
2022-12-18T08:49:17.370Z,25.77
2022-12-18T08:54:21.825Z,25.70
2022-12-18T08:59:25.592Z,28.63
2022-12-18T09:04:30.479Z,25.17
2022-12-18T09:09:34.119Z,27.10
2022-12-18T09:14:38.514Z,29.53
2022-12-18T09:19:43.399Z,27.20
2022-12-18T09:24:46.825Z,30.73
2022-12-18T09:29:50.392Z,34.87
2022-12-18T09:34:55.185Z,52.30
2022-12-18T09:39:58.615Z,26.50
2022-12-18T09:45:03.208Z,23.80
2022-12-18T09:50:22.806Z,22.67
2022-12-18T09:55:36.617Z,20.80
2022-12-18T10:00:41.094Z,19.90
2022-12-18T10:05:52.264Z,18.40
2022-12-18T10:10:59.929Z,17.13
2022-12-18T10:16:13.403Z,14.43
2022-12-18T10:21:23.909Z,15.17
2022-12-18T10:26:27.471Z,14.43
2022-12-18T10:31:30.914Z,14.30
2022-12-18T10:36:36.140Z,13.10
2022-12-18T10:41:39.711Z,10.50
2022-12-18T10:46:43.664Z,8.53
2022-12-18T10:51:48.745Z,8.03
2022-12-18T10:56:52.378Z,8.10
2022-12-18T11:01:57.839Z,7.47
2022-12-18T11:07:04.934Z,8.93
2022-12-18T11:12:18.226Z,9.13
2022-12-18T11:17:25.924Z,8.40
2022-12-18T11:22:33.976Z,9.27
2022-12-18T11:27:37.513Z,9.10
2022-12-18T11:32:43.154Z,9.20
2022-12-18T11:37:53.193Z,9.43
2022-12-18T11:43:03.494Z,10.03
2022-12-18T11:48:19.096Z,10.00
2022-12-18T11:53:25.254Z,10.87
2022-12-18T11:58:39.945Z,9.73
2022-12-18T12:04:21.620Z,10.87
2022-12-18T12:09:33.605Z,10.13
2022-12-18T12:14:51.986Z,10.30
2022-12-18T12:20:04.561Z,10.37
2022-12-18T12:25:34.248Z,10.33
2022-12-18T12:30:50.882Z,9.33
2022-12-18T12:36:02.338Z,9.87
2022-12-18T12:41:31.519Z,9.50
2022-12-18T12:46:39.490Z,8.70
2022-12-18T12:51:47.097Z,9.97
2022-12-18T12:56:57.091Z,8.70
2022-12-18T13:02:07.904Z,10.40
2022-12-18T13:07:18.735Z,9.57
2022-12-18T13:12:41.339Z,9.37
2022-12-18T13:17:46.182Z,8.37
2022-12-18T13:22:51.958Z,8.87
2022-12-18T13:28:04.756Z,10.03
2022-12-18T13:33:56.259Z,12.27
2022-12-18T13:39:30.024Z,9.93
2022-12-18T13:44:41.544Z,10.43
2022-12-18T13:49:46.839Z,10.53
2022-12-18T13:54:55.166Z,9.57
2022-12-18T14:00:21.836Z,10.17
2022-12-18T14:05:27.561Z,9.77
2022-12-18T14:10:47.619Z,11.30
2022-12-18T14:15:54.732Z,10.27
2022-12-18T14:21:02.668Z,11.07
2022-12-18T14:26:24.032Z,11.57
2022-12-18T14:31:33.335Z,12.93
2022-12-18T14:36:37.109Z,12.13
2022-12-18T14:41:40.633Z,12.50
2022-12-18T14:46:46.924Z,12.47
2022-12-18T14:51:51.988Z,12.70
2022-12-18T14:57:02.300Z,13.80
2022-12-18T15:02:15.980Z,13.90
2022-12-18T15:07:22.136Z,14.90
2022-12-18T15:12:32.630Z,14.77
2022-12-18T15:17:43.614Z,14.97
2022-12-18T15:22:50.071Z,15.27
2022-12-18T15:27:54.050Z,14.37
2022-12-18T15:33:25.969Z,14.43
2022-12-18T15:38:29.743Z,16.87
2022-12-18T15:43:36.391Z,18.60
2022-12-18T15:48:43.534Z,15.40
2022-12-18T15:53:47.679Z,15.30
2022-12-18T15:58:51.157Z,14.13
2022-12-18T16:03:56.590Z,14.20
2022-12-18T16:09:00.670Z,13.23
2022-12-18T16:14:04.405Z,13.67
2022-12-18T16:19:09.801Z,13.63
2022-12-18T16:24:17.255Z,13.23
2022-12-18T16:29:25.799Z,12.57
2022-12-18T16:34:35.413Z,12.80
2022-12-18T16:39:40.665Z,13.13
2022-12-18T16:44:45.331Z,12.77
2022-12-18T16:49:53.008Z,13.47
2022-12-18T16:54:56.911Z,12.63
2022-12-18T17:00:05.064Z,12.60
2022-12-18T17:05:10.997Z,13.20
2022-12-18T17:10:15.831Z,12.70
2022-12-18T17:15:19.445Z,12.73
2022-12-18T17:20:25.096Z,12.70
2022-12-18T17:25:28.911Z,12.93
2022-12-18T17:30:32.355Z,13.17
2022-12-18T17:35:37.653Z,14.00
2022-12-18T17:40:46.040Z,13.13
2022-12-18T17:46:09.389Z,12.27
2022-12-18T17:51:13.717Z,13.17
2022-12-18T17:56:20.081Z,12.23
2022-12-18T18:01:26.845Z,11.83
2022-12-18T18:06:30.391Z,11.73
2022-12-18T18:11:53.291Z,12.47
2022-12-18T18:17:04.724Z,12.30
2022-12-18T18:22:08.615Z,12.87
2022-12-18T18:27:12.384Z,12.73
2022-12-18T18:32:17.381Z,12.50
2022-12-18T18:37:21.024Z,13.67
2022-12-18T18:42:24.501Z,13.40
2022-12-18T18:47:30.697Z,12.93
2022-12-18T18:52:34.247Z,12.57
2022-12-18T18:57:38.436Z,15.23
2022-12-18T19:02:43.420Z,13.90
2022-12-18T19:07:47.385Z,13.03
2022-12-18T19:13:07.925Z,13.03
2022-12-18T19:18:13.203Z,13.70
2022-12-18T19:23:16.705Z,13.60
2022-12-18T19:28:26.015Z,13.20
2022-12-18T19:33:48.191Z,13.53
2022-12-18T19:38:52.492Z,12.13
2022-12-18T19:43:56.147Z,12.97
2022-12-18T19:49:01.938Z,12.20
2022-12-18T19:54:07.071Z,12.70
2022-12-18T19:59:11.184Z,13.07
2022-12-18T20:04:16.072Z,13.37
2022-12-18T20:09:20.502Z,13.30
2022-12-18T20:14:25.063Z,13.13
2022-12-18T20:19:30.017Z,11.73
2022-12-18T20:24:33.532Z,13.27
2022-12-18T20:29:36.887Z,12.73
2022-12-18T20:34:42.285Z,13.27
2022-12-18T20:39:46.658Z,13.93
2022-12-18T20:44:50.870Z,12.47
2022-12-18T20:49:56.469Z,13.80
2022-12-18T20:54:59.841Z,13.70
2022-12-18T21:00:08.485Z,13.93
2022-12-18T21:05:13.867Z,15.43
2022-12-18T21:10:17.315Z,14.67
2022-12-18T21:15:26.811Z,13.57
2022-12-18T21:20:33.465Z,14.57
2022-12-18T21:25:37.090Z,14.20
2022-12-18T21:30:41.015Z,14.37
2022-12-18T21:35:46.061Z,14.23
2022-12-18T21:40:49.433Z,15.40
2022-12-18T21:45:52.929Z,13.77
2022-12-18T21:50:57.755Z,15.17
2022-12-18T21:56:01.800Z,15.70
2022-12-18T22:01:05.300Z,17.03
2022-12-18T22:06:10.488Z,16.60
2022-12-18T22:11:14.644Z,17.87
2022-12-18T22:16:19.636Z,19.30
2022-12-18T22:21:29.278Z,18.57
2022-12-18T22:26:39.466Z,19.53
2022-12-18T22:31:43.689Z,19.13
2022-12-18T22:36:49.714Z,20.80
2022-12-18T22:41:53.718Z,21.43
2022-12-18T22:47:06.954Z,20.07
2022-12-18T22:52:12.458Z,21.70
2022-12-18T22:57:16.965Z,19.07
2022-12-18T23:02:21.029Z,21.33
2022-12-18T23:07:25.989Z,20.40
2022-12-18T23:12:29.477Z,19.87
2022-12-18T23:17:32.974Z,19.67
2022-12-18T23:22:38.021Z,19.17
2022-12-18T23:27:41.398Z,18.90
2022-12-18T23:32:44.757Z,18.40
2022-12-18T23:37:58.676Z,17.97
2022-12-18T23:43:03.078Z,17.40
2022-12-18T23:48:06.460Z,16.57
2022-12-18T23:53:11.944Z,16.43
2022-12-18T23:58:18.530Z,15.27
